Wentworth Springs, California
Current Conditions -  °F | °C
As of 12:35 PM on Friday 28 Nov 2014 (Local Time) from KPVF Reporting Station
Clear Clear  
Wind Chill: 63°   Ceiling: Unl
Heat Index: 63°   Visibility: 10mi
Dew Point: 32°   Wind: 7mph
Humidity: 32%   Direction: 210°SSW
Pressure: 29.99"   Gusts: NA
Location:  38.9159°N, 120.725°W
Report Text: KPVF 282035Z AUTO 21006KT 180V260 10SM CLR 17/00 A2999 RMK AO1
Loading
Personal Weather Stations






























Interactive Weather Map New forecast layout! Learn more

10-Day Weather Forecast

Advertisements
Track Severe Weather on mobile